Time;durP1;ratioP1;P1;durP2;ratioP2;P2;SDS_P1;SDS_P2;PMS_P1;PMS_P2;Temp;Humidity;BMP_temperature;BMP_pressure;BME280_temperature;BME280_humidity;BME280_pressure;Samples;Min_cycle;Max_cycle;Signal;HPM_P1;HPM_P2
2022/04/06 00:01:31;;;;;;;6.53;5.93;;;10.60;99.90;;;;;;5076531;28;20448;-62
2022/04/06 00:03:58;;;;;;;6.53;5.27;;;10.60;99.90;;;;;;5076450;28;20432;-61
2022/04/06 00:06:25;;;;;;;7.07;6.10;;;10.50;99.90;;;;;;5076404;28;20471;-61
2022/04/06 00:08:54;;;;;;;6.33;5.73;;;10.60;99.90;;;;;;5076538;28;20487;-61
2022/04/06 00:11:21;;;;;;;6.20;5.50;;;10.50;99.90;;;;;;5076002;28;20448;-62
2022/04/06 00:13:48;;;;;;;6.43;5.83;;;10.60;99.90;;;;;;5076355;28;20436;-62
2022/04/06 00:16:16;;;;;;;5.93;5.40;;;10.60;99.90;;;;;;5076311;28;20444;-62
2022/04/06 00:18:43;;;;;;;7.03;5.87;;;10.60;99.90;;;;;;5075962;28;20460;-62
2022/04/06 00:21:11;;;;;;;6.17;5.23;;;10.60;99.90;;;;;;5075746;28;20440;-62
2022/04/06 00:23:39;;;;;;;6.13;5.53;;;10.60;99.90;;;;;;5075974;28;20484;-61
2022/04/06 00:26:07;;;;;;;6.40;5.80;;;10.60;99.90;;;;;;5075658;28;20498;-60
2022/04/06 00:28:34;;;;;;;5.93;5.43;;;10.60;99.90;;;;;;5075865;28;20467;-60
2022/04/06 00:31:02;;;;;;;5.70;5.30;;;10.60;99.90;;;;;;5076057;28;20455;-61
2022/04/06 00:33:29;;;;;;;6.50;5.13;;;10.60;99.90;;;;;;5075592;28;20451;-61
2022/04/06 00:35:56;;;;;;;7.27;5.67;;;10.60;99.90;;;;;;5075481;28;20938;-60
2022/04/06 00:38:24;;;;;;;5.87;5.30;;;10.60;99.90;;;;;;5075832;28;20558;-63
2022/04/06 00:40:51;;;;;;;6.17;5.60;;;10.60;99.90;;;;;;5075654;28;20474;-61
2022/04/06 00:43:19;;;;;;;6.00;5.00;;;10.70;99.90;;;;;;5075548;28;20484;-61
2022/04/06 00:45:47;;;;;;;5.87;5.37;;;10.60;99.90;;;;;;5075784;28;20459;-61
2022/04/06 00:48:14;;;;;;;6.90;6.20;;;10.60;99.90;;;;;;5075341;28;20563;-61
2022/04/06 00:50:42;;;;;;;7.20;6.50;;;10.60;99.90;;;;;;5075252;28;21102;-61
2022/04/06 00:53:10;;;;;;;6.63;6.07;;;10.60;99.90;;;;;;5075531;28;20470;-61
2022/04/06 00:55:39;;;;;;;5.90;5.40;;;10.60;99.90;;;;;;5075448;28;20479;-61
2022/04/06 00:58:08;;;;;;;5.70;5.30;;;10.60;99.90;;;;;;5075304;28;20555;-60
2022/04/06 01:00:37;;;;;;;7.43;5.40;;;10.60;99.90;;;;;;5075394;28;20440;-60
2022/04/06 01:03:04;;;;;;;6.07;5.57;;;10.50;99.90;;;;;;5075082;28;20483;-60
2022/04/06 01:05:32;;;;;;;6.73;5.70;;;10.50;99.90;;;;;;5074946;28;20452;-60
2022/04/06 01:08:01;;;;;;;6.50;5.40;;;10.60;99.90;;;;;;5074968;28;20468;-61
2022/04/06 01:10:28;;;;;;;6.27;5.60;;;10.60;99.90;;;;;;5074989;28;20938;-61
2022/04/06 01:12:56;;;;;;;5.93;5.43;;;10.60;99.90;;;;;;5074791;28;20953;-61
2022/04/06 01:15:24;;;;;;;5.57;5.07;;;10.50;99.90;;;;;;5075056;28;20486;-61
2022/04/06 01:17:53;;;;;;;6.40;5.00;;;10.50;99.90;;;;;;5074748;28;20468;-61
2022/04/06 01:20:20;;;;;;;5.80;5.30;;;10.60;99.90;;;;;;5074775;28;20448;-60
2022/04/06 01:22:48;;;;;;;6.57;5.60;;;10.50;99.90;;;;;;5074465;28;20770;-60
2022/04/06 01:25:16;;;;;;;5.93;5.37;;;10.60;99.90;;;;;;5074786;28;20813;-60
2022/04/06 01:27:43;;;;;;;7.30;6.00;;;10.60;99.90;;;;;;5074382;28;20484;-60
2022/04/06 01:30:10;;;;;;;6.83;6.23;;;10.60;99.90;;;;;;5074312;28;20465;-60
2022/04/06 01:32:38;;;;;;;5.63;5.20;;;10.60;99.90;;;;;;5074310;28;20444;-61
2022/04/06 01:35:07;;;;;;;8.60;5.63;;;10.60;99.90;;;;;;5074748;28;20451;-61
2022/04/06 01:37:35;;;;;;;6.70;5.53;;;10.50;99.90;;;;;;5074531;28;20464;-60
2022/04/06 01:40:04;;;;;;;6.33;5.73;;;10.60;99.90;;;;;;5074568;28;20522;-60
2022/04/06 01:42:32;;;;;;;6.37;5.57;;;10.60;99.90;;;;;;5074238;28;21013;-60
2022/04/06 01:45:00;;;;;;;6.00;5.40;;;10.60;99.90;;;;;;5074472;28;20451;-61
2022/04/06 01:47:27;;;;;;;5.50;4.90;;;10.60;99.90;;;;;;5074335;28;20555;-60
2022/04/06 01:52:39;;;;;;;7.37;6.13;;;10.70;99.90;;;;;;5074229;28;20508;-60
2022/04/06 01:55:09;;;;;;;6.60;5.90;;;10.60;99.90;;;;;;5073840;28;20456;-60
2022/04/06 01:57:37;;;;;;;5.80;5.30;;;10.60;99.90;;;;;;5073869;28;20474;-60
2022/04/06 02:00:09;;;;;;;7.13;5.83;;;10.50;99.90;;;;;;5073841;28;20890;-60
2022/04/06 02:02:37;;;;;;;5.73;5.10;;;10.60;99.90;;;;;;5074221;28;20608;-60
2022/04/06 02:05:04;;;;;;;6.23;5.60;;;10.60;99.90;;;;;;5073763;28;20953;-60
2022/04/06 02:07:31;;;;;;;7.70;4.73;;;10.50;99.90;;;;;;5073945;28;20504;-60
2022/04/06 02:10:00;;;;;;;5.80;5.30;;;10.60;99.90;;;;;;5074112;28;20452;-60
2022/04/06 02:12:29;;;;;;;5.30;4.37;;;10.60;99.90;;;;;;5073928;28;20479;-60
2022/04/06 02:14:57;;;;;;;6.60;5.93;;;10.60;99.90;;;;;;5073940;28;20807;-61
2022/04/06 02:17:27;;;;;;;6.07;5.57;;;10.60;99.90;;;;;;5073883;28;20468;-60
2022/04/06 02:19:54;;;;;;;6.20;5.20;;;10.60;99.90;;;;;;5073934;28;20456;-60
2022/04/06 02:22:21;;;;;;;9.60;5.87;;;10.60;99.90;;;;;;5073706;28;20458;-60
2022/04/06 02:24:48;;;;;;;5.23;4.73;;;10.60;99.90;;;;;;5073431;28;20531;-60
2022/04/06 02:27:15;;;;;;;7.00;6.30;;;10.70;99.90;;;;;;5072423;28;20484;-60
2022/04/06 02:29:44;;;;;;;5.33;4.93;;;;;;;;;;5073673;28;20482;-60
2022/04/06 02:32:12;;;;;;;7.40;5.10;;;10.70;99.90;;;;;;5073317;28;20456;-60
2022/04/06 02:34:40;;;;;;;6.63;5.90;;;10.60;99.90;;;;;;5073747;28;20444;-60
2022/04/06 02:37:08;;;;;;;6.30;5.70;;;10.60;99.90;;;;;;5073232;28;20474;-60
2022/04/06 02:39:36;;;;;;;5.27;4.87;;;10.60;99.90;;;;;;5073216;28;20967;-60
2022/04/06 02:42:03;;;;;;;6.53;5.13;;;10.60;99.90;;;;;;5073283;28;20454;-61
2022/04/06 02:44:30;;;;;;;5.63;5.10;;;10.60;99.90;;;;;;5073053;28;20834;-60
2022/04/06 02:46:58;;;;;;;5.73;4.77;;;10.60;99.90;;;;;;5073099;28;20451;-60
2022/04/06 02:49:26;;;;;;;6.33;4.90;;;10.60;99.90;;;;;;5073555;28;20451;-60
2022/04/06 02:51:53;;;;;;;4.97;4.53;;;10.50;99.90;;;;;;5073455;28;20538;-60
2022/04/06 02:54:21;;;;;;;5.50;5.00;;;10.60;99.90;;;;;;5073278;28;20444;-60
2022/04/06 02:56:48;;;;;;;5.10;4.60;;;10.60;99.90;;;;;;5073424;28;20456;-60
2022/04/06 02:59:15;;;;;;;6.00;5.13;;;10.60;99.90;;;;;;5073370;28;20455;-60
2022/04/06 03:01:42;;;;;;;4.93;4.43;;;10.70;99.90;;;;;;5073395;28;20468;-60
2022/04/06 03:04:11;;;;;;;4.77;4.27;;;10.70;99.90;;;;;;5073317;28;20480;-60
2022/04/06 03:06:39;;;;;;;5.80;4.60;;;10.70;99.90;;;;;;5073010;28;20445;-60
2022/04/06 03:09:06;;;;;;;10.27;5.03;;;10.60;99.90;;;;;;5072383;28;20468;-60
2022/04/06 03:11:33;;;;;;;6.43;5.83;;;10.50;99.90;;;;;;5072914;28;20547;-60
2022/04/06 03:14:00;;;;;;;5.87;5.37;;;10.60;99.90;;;;;;5073097;28;20448;-60
2022/04/06 03:16:27;;;;;;;5.40;4.60;;;10.60;99.90;;;;;;5073170;28;20448;-60
2022/04/06 03:18:54;;;;;;;5.73;4.90;;;10.60;99.90;;;;;;5073025;28;20469;-60
2022/04/06 03:21:23;;;;;;;5.20;4.70;;;10.60;99.90;;;;;;5073256;28;20440;-60
2022/04/06 03:23:51;;;;;;;6.23;5.63;;;10.70;99.90;;;;;;5072999;28;20491;-60
2022/04/06 03:26:18;;;;;;;4.50;4.20;;;10.60;99.90;;;;;;5072652;28;20476;-60
2022/04/06 03:28:45;;;;;;;5.93;5.33;;;10.50;99.90;;;;;;5072797;28;20464;-60
2022/04/06 03:31:12;;;;;;;5.00;4.60;;;10.50;99.90;;;;;;5073041;28;20452;-60
2022/04/06 03:33:42;;;;;;;8.83;4.70;;;10.50;99.90;;;;;;5072705;28;20444;-60
2022/04/06 03:36:10;;;;;;;5.90;5.30;;;10.50;99.90;;;;;;5073053;28;20449;-60
2022/04/06 03:38:38;;;;;;;5.13;4.73;;;10.60;99.90;;;;;;5072627;28;20468;-60
2022/04/06 03:41:06;;;;;;;5.00;4.60;;;10.60;99.90;;;;;;5072621;28;20452;-61
2022/04/06 03:43:33;;;;;;;5.73;5.23;;;10.60;99.90;;;;;;5072660;28;20484;-61
2022/04/06 03:46:00;;;;;;;6.37;5.47;;;10.60;99.90;;;;;;5072894;28;20816;-61
2022/04/06 03:48:27;;;;;;;5.40;4.90;;;10.60;99.90;;;;;;5072762;28;20468;-60
2022/04/06 03:50:55;;;;;;;5.70;4.60;;;10.50;99.90;;;;;;5072694;28;20447;-60
2022/04/06 03:53:22;;;;;;;5.73;5.00;;;10.50;99.90;;;;;;5073169;28;20440;-60
2022/04/06 03:55:51;;;;;;;6.03;5.20;;;10.50;99.90;;;;;;5076309;28;20501;-60
2022/04/06 03:58:18;;;;;;;6.10;5.60;;;10.60;99.90;;;;;;5076154;28;20507;-60
2022/04/06 04:00:45;;;;;;;5.93;5.43;;;10.60;99.90;;;;;;5076480;28;20462;-60
2022/04/06 04:03:12;;;;;;;7.70;5.60;;;10.60;99.90;;;;;;5076290;28;20550;-60
2022/04/06 04:05:39;;;;;;;6.40;5.80;;;10.60;99.90;;;;;;5076341;28;20441;-60
2022/04/06 04:08:07;;;;;;;11.63;5.20;;;10.60;99.90;;;;;;5075995;28;20995;-60
2022/04/06 04:10:34;;;;;;;5.70;5.07;;;10.50;99.90;;;;;;5076216;28;20455;-61
2022/04/06 04:13:03;;;;;;;5.93;5.43;;;10.50;99.90;;;;;;5075876;28;20824;-61
2022/04/06 04:15:31;;;;;;;5.63;5.10;;;10.50;99.90;;;;;;5075877;28;20501;-61
2022/04/06 04:17:58;;;;;;;5.77;5.27;;;10.50;99.90;;;;;;5076084;28;20547;-60
2022/04/06 04:20:25;;;;;;;6.27;5.67;;;10.60;99.90;;;;;;5075970;28;20459;-60
2022/04/06 04:22:52;;;;;;;6.70;6.13;;;10.50;99.90;;;;;;5076174;28;20547;-60
2022/04/06 04:25:19;;;;;;;6.10;5.70;;;10.50;99.90;;;;;;5075652;28;20488;-60
2022/04/06 04:27:46;;;;;;;6.50;5.90;;;10.60;99.90;;;;;;5075494;28;20974;-60
2022/04/06 04:30:15;;;;;;;5.43;5.00;;;10.60;99.90;;;;;;5076041;28;20802;-60
2022/04/06 04:32:42;;;;;;;6.00;5.40;;;10.60;99.90;;;;;;5075848;28;20845;-60
2022/04/06 04:35:11;;;;;;;5.37;4.87;;;10.60;99.90;;;;;;5075473;28;20535;-60
2022/04/06 04:37:38;;;;;;;6.47;5.17;;;10.60;99.90;;;;;;5075505;28;20464;-61
2022/04/06 04:40:07;;;;;;;5.20;4.80;;;10.50;99.90;;;;;;5075750;28;20535;-62
2022/04/06 04:42:34;;;;;;;5.90;5.50;;;10.50;99.90;;;;;;5075345;28;20942;-61
2022/04/06 04:45:01;;;;;;;4.93;4.53;;;10.40;99.90;;;;;;5075517;28;20484;-61
2022/04/06 04:47:31;;;;;;;6.20;5.20;;;10.50;99.90;;;;;;5075742;28;20551;-61
2022/04/06 04:49:58;;;;;;;5.20;4.80;;;10.40;99.90;;;;;;5075159;28;20452;-61
2022/04/06 04:52:25;;;;;;;5.30;4.77;;;10.50;99.90;;;;;;5075280;28;20455;-61
2022/04/06 04:54:52;;;;;;;6.17;5.40;;;10.50;99.90;;;;;;5075089;28;20456;-61
2022/04/06 04:57:19;;;;;;;5.20;4.73;;;10.40;99.90;;;;;;5075381;28;20551;-62
2022/04/06 04:59:47;;;;;;;5.03;4.57;;;10.40;99.90;;;;;;5074911;28;20939;-61
2022/04/06 05:02:14;;;;;;;5.97;5.07;;;10.40;99.90;;;;;;5075440;28;20449;-61
2022/04/06 05:04:42;;;;;;;8.03;4.83;;;10.40;99.90;;;;;;5075037;28;20567;-61
2022/04/06 05:07:10;;;;;;;5.07;4.57;;;10.40;99.90;;;;;;5074338;28;20470;-61
2022/04/06 05:09:37;;;;;;;6.10;4.57;;;10.50;99.90;;;;;;5074853;28;20471;-62
2022/04/06 05:12:05;;;;;;;6.60;4.70;;;10.50;99.90;;;;;;5075009;28;20444;-62
2022/04/06 05:14:32;;;;;;;5.67;5.17;;;10.40;99.90;;;;;;5074634;28;20444;-63
2022/04/06 05:17:00;;;;;;;5.50;4.93;;;10.40;99.90;;;;;;5075043;28;20451;-63
2022/04/06 05:19:28;;;;;;;5.70;5.20;;;10.50;99.90;;;;;;5074917;28;20961;-63
2022/04/06 05:21:59;;;;;;;5.13;4.73;;;10.50;99.90;;;;;;5074593;28;20448;-62
2022/04/06 05:24:26;;;;;;;14.50;5.40;;;10.50;99.90;;;;;;5074901;28;20479;-63
2022/04/06 05:26:53;;;;;;;5.77;4.93;;;10.50;99.90;;;;;;5074040;28;20523;-62
2022/04/06 05:29:21;;;;;;;6.60;5.30;;;10.50;99.90;;;;;;5074759;28;20444;-63
2022/04/06 05:31:48;;;;;;;5.50;5.00;;;10.50;99.90;;;;;;5074777;28;20476;-63
2022/04/06 05:34:16;;;;;;;5.33;4.87;;;10.50;99.90;;;;;;5074734;28;20468;-63
2022/04/06 05:36:43;;;;;;;5.80;5.30;;;10.50;99.90;;;;;;5074181;28;20448;-62
2022/04/06 05:39:12;;;;;;;5.70;5.20;;;10.60;99.90;;;;;;5074433;28;20464;-63
2022/04/06 05:41:40;;;;;;;5.00;4.60;;;10.60;99.90;;;;;;5074565;28;20456;-63
2022/04/06 05:44:07;;;;;;;6.67;6.07;;;10.60;99.90;;;;;;5073532;28;21074;-63
2022/04/06 05:46:34;;;;;;;6.27;5.70;;;10.70;99.90;;;;;;5074235;28;20547;-62
2022/04/06 05:49:02;;;;;;;8.93;4.80;;;10.70;99.90;;;;;;5074304;28;20500;-64
2022/04/06 05:51:29;;;;;;;5.70;5.20;;;10.70;99.90;;;;;;5073807;28;20484;-62
2022/04/06 05:53:56;;;;;;;6.40;5.80;;;10.70;99.90;;;;;;5073869;28;20478;-63
2022/04/06 05:56:25;;;;;;;6.87;6.03;;;10.70;99.90;;;;;;5074258;28;20456;-63
2022/04/06 05:58:52;;;;;;;8.03;5.53;;;10.80;99.90;;;;;;5074018;28;20464;-62
2022/04/06 06:01:19;;;;;;;6.53;5.90;;;10.80;99.90;;;;;;5073960;28;20452;-62
2022/04/06 06:03:47;;;;;;;6.20;5.20;;;10.90;99.90;;;;;;5073383;28;20489;-63
2022/04/06 06:06:14;;;;;;;6.50;5.90;;;10.90;99.90;;;;;;5073583;28;20539;-63
2022/04/06 06:08:41;;;;;;;6.90;6.20;;;10.80;99.90;;;;;;5073648;28;20866;-63
2022/04/06 06:11:09;;;;;;;6.47;5.83;;;10.80;99.90;;;;;;5074046;28;20445;-64
2022/04/06 06:13:38;;;;;;;6.63;5.80;;;10.90;99.90;;;;;;5073504;28;20543;-64
2022/04/06 06:16:06;;;;;;;5.90;5.40;;;10.90;99.90;;;;;;5073914;28;20484;-63
2022/04/06 06:18:33;;;;;;;9.10;6.50;;;10.90;99.90;;;;;;5073733;28;20555;-63
2022/04/06 06:21:01;;;;;;;7.23;6.30;;;10.90;99.90;;;;;;5072718;28;20535;-60
2022/04/06 06:23:28;;;;;;;6.50;5.93;;;10.90;99.90;;;;;;5073271;28;20812;-61
2022/04/06 06:25:56;;;;;;;6.20;5.70;;;10.90;99.90;;;;;;5072892;28;20518;-62
2022/04/06 06:28:24;;;;;;;7.30;6.63;;;10.90;99.90;;;;;;5073349;28;20560;-61
2022/04/06 06:30:52;;;;;;;6.70;6.10;;;10.90;99.90;;;;;;5073216;28;20452;-62
2022/04/06 06:33:20;;;;;;;9.80;6.30;;;11.00;99.90;;;;;;5072834;28;20905;-62
2022/04/06 06:35:47;;;;;;;7.10;6.50;;;10.90;99.90;;;;;;5073467;28;20444;-62
2022/04/06 06:38:14;;;;;;;7.63;6.90;;;11.00;99.90;;;;;;5073430;28;20500;-61
2022/04/06 06:40:42;;;;;;;7.33;6.20;;;11.00;99.90;;;;;;5073203;28;20455;-61
2022/04/06 06:43:09;;;;;;;6.73;5.93;;;11.00;99.90;;;;;;5072927;28;20997;-61
2022/04/06 06:45:36;;;;;;;7.50;6.13;;;11.00;99.90;;;;;;5072580;28;21066;-61
2022/04/06 06:48:05;;;;;;;7.27;6.57;;;11.00;99.90;;;;;;5072811;28;20839;-62
2022/04/06 06:50:32;;;;;;;7.47;6.40;;;11.00;99.90;;;;;;5073168;28;20547;-62
2022/04/06 06:52:59;;;;;;;8.53;6.00;;;11.10;99.90;;;;;;5072797;28;20451;-61
2022/04/06 06:55:26;;;;;;;9.50;6.40;;;11.10;99.90;;;;;;5072806;28;20748;-61
2022/04/06 06:57:53;;;;;;;6.93;6.30;;;11.10;99.90;;;;;;5072904;28;20464;-61
2022/04/06 07:00:21;;;;;;;6.60;6.00;;;11.10;99.90;;;;;;5072980;28;20440;-61
2022/04/06 07:02:48;;;;;;;9.03;6.23;;;11.20;99.90;;;;;;5072889;28;20530;-61
2022/04/06 07:05:17;;;;;;;7.40;6.70;;;11.20;99.90;;;;;;5073032;28;20480;-62
2022/04/06 07:07:51;;;;;;;8.20;5.90;;;11.30;99.90;;;;;;5072757;28;20469;-61
2022/04/06 07:10:24;;;;;;;5.83;5.33;;;11.40;99.90;;;;;;5073050;28;20440;-61
2022/04/06 07:12:53;;;;;;;7.70;6.13;;;11.60;99.90;;;;;;5072824;28;20450;-62
2022/04/06 07:15:21;;;;;;;5.63;5.13;;;11.80;99.90;;;;;;5073025;28;20926;-62
2022/04/06 07:17:51;;;;;;;6.00;5.50;;;12.00;99.90;;;;;;5072573;28;20476;-62
2022/04/06 07:20:20;;;;;;;5.47;5.03;;;11.90;99.90;;;;;;5072982;28;20433;-62
2022/04/06 07:22:47;;;;;;;6.53;4.73;;;12.10;99.90;;;;;;5072535;28;20935;-61
2022/04/06 07:25:14;;;;;;;5.70;5.20;;;11.90;99.90;;;;;;5072697;28;20583;-62
2022/04/06 07:27:41;;;;;;;5.53;5.00;;;12.00;99.90;;;;;;5072314;28;20508;-61
2022/04/06 07:30:11;;;;;;;4.23;3.83;;;12.20;99.90;;;;;;5075524;28;20444;-62
2022/04/06 07:32:38;;;;;;;4.27;3.83;;;12.10;99.90;;;;;;5076460;28;20456;-62
2022/04/06 07:35:07;;;;;;;6.17;3.47;;;11.90;99.90;;;;;;5076679;28;20436;-62
2022/04/06 07:37:40;;;;;;;4.87;3.53;;;12.00;99.90;;;;;;5076280;28;20962;-62
2022/04/06 07:40:08;;;;;;;4.10;3.70;;;12.10;99.90;;;;;;5076554;28;20452;-61
2022/04/06 07:42:36;;;;;;;3.63;3.33;;;12.20;99.90;;;;;;5076604;28;20451;-61
2022/04/06 07:45:04;;;;;;;3.90;3.50;;;12.30;99.90;;;;;;5076324;28;20483;-61
2022/04/06 07:47:31;;;;;;;7.40;3.87;;;12.20;99.90;;;;;;5076128;28;20563;-62
2022/04/06 07:50:00;;;;;;;4.07;3.67;;;12.10;99.90;;;;;;5076274;28;20544;-61
2022/04/06 07:52:28;;;;;;;3.30;3.00;;;11.90;99.90;;;;;;5076431;28;20451;-62
2022/04/06 07:54:56;;;;;;;3.83;3.07;;;12.00;99.90;;;;;;5076040;28;20448;-62
2022/04/06 07:57:24;;;;;;;3.30;3.00;;;12.10;99.90;;;;;;5076076;28;20464;-61
2022/04/06 07:59:52;;;;;;;3.93;3.63;;;12.10;99.90;;;;;;5076089;28;20930;-61
2022/04/06 08:02:19;;;;;;;3.77;3.20;;;12.30;99.90;;;;;;5075798;28;20440;-62
2022/04/06 08:04:46;;;;;;;3.30;3.00;;;12.30;99.90;;;;;;5076176;28;20480;-61
2022/04/06 08:07:13;;;;;;;2.90;2.70;;;12.50;99.90;;;;;;5075811;28;20464;-60
2022/04/06 08:09:40;;;;;;;4.57;2.90;;;12.50;99.90;;;;;;5076147;28;20448;-61
2022/04/06 08:12:09;;;;;;;2.57;2.37;;;12.40;99.90;;;;;;5075937;28;20487;-61
2022/04/06 08:14:36;;;;;;;2.53;2.33;;;12.60;99.90;;;;;;5075638;28;20542;-62
2022/04/06 08:17:04;;;;;;;2.57;2.37;;;12.70;99.90;;;;;;5075705;28;20452;-62
2022/04/06 08:19:31;;;;;;;3.57;2.27;;;;;;;;;;5075789;28;20448;-62
2022/04/06 08:21:59;;;;;;;4.27;2.37;;;12.90;99.90;;;;;;5075853;28;20444;-61
2022/04/06 08:24:27;;;;;;;3.73;2.37;;;12.80;99.90;;;;;;5075591;28;20437;-61
2022/04/06 08:26:54;;;;;;;3.37;3.00;;;13.10;99.90;;;;;;5075488;28;20558;-61
2022/04/06 08:29:23;;;;;;;1.80;1.70;;;13.20;99.90;;;;;;5075830;28;20451;-61
2022/04/06 08:31:50;;;;;;;1.90;1.80;;;13.30;99.90;;;;;;5075690;28;20535;-61
2022/04/06 08:34:18;;;;;;;2.53;2.33;;;13.20;99.90;;;;;;5075504;28;20449;-61
2022/04/06 08:36:45;;;;;;;2.00;1.80;;;13.40;99.90;;;;;;5075458;28;20807;-61
2022/04/06 08:39:12;;;;;;;11.57;1.87;;;13.40;99.90;;;;;;5075578;28;20456;-61
2022/04/06 08:41:40;;;;;;;1.80;1.50;;;13.30;99.90;;;;;;5073968;28;20951;-61
2022/04/06 08:44:08;;;;;;;1.70;1.50;;;13.10;99.90;;;;;;5075513;28;20441;-61
2022/04/06 08:46:38;;;;;;;2.80;1.67;;;12.80;99.90;;;;;;5075348;28;20891;-62
2022/04/06 08:49:05;;;;;;;2.10;1.90;;;12.90;99.90;;;;;;5075248;28;20460;-61
2022/04/06 08:51:34;;;;;;;2.10;1.97;;;12.90;99.90;;;;;;5075372;28;20444;-61
2022/04/06 08:54:01;;;;;;;2.23;2.03;;;13.20;99.90;;;;;;5075154;28;20437;-61
2022/04/06 08:56:29;;;;;;;1.87;1.70;;;13.70;99.90;;;;;;5075234;28;20452;-61
2022/04/06 08:58:56;;;;;;;1.60;1.50;;;14.10;99.90;;;;;;5075322;28;20472;-61
2022/04/06 09:01:23;;;;;;;1.80;1.40;;;14.90;99.90;;;;;;5075095;28;20551;-61
2022/04/06 09:03:51;;;;;;;1.53;1.40;;;15.60;99.90;;;;;;5074942;28;20445;-61
2022/04/06 09:06:19;;;;;;;1.60;1.50;;;15.10;99.90;;;;;;5074733;28;20488;-62
2022/04/06 09:08:48;;;;;;;1.50;1.40;;;15.10;99.90;;;;;;5074693;28;21018;-61
2022/04/06 09:11:18;;;;;;;1.50;1.30;;;15.70;99.90;;;;;;5074773;28;20460;-62
2022/04/06 09:13:46;;;;;;;3.50;1.67;;;16.50;99.90;;;;;;5074888;28;20891;-62
2022/04/06 09:16:14;;;;;;;1.63;1.47;;;16.40;99.90;;;;;;5074673;28;20450;-62
2022/04/06 09:18:44;;;;;;;3.20;1.60;;;16.20;99.90;;;;;;5074855;28;20492;-62
2022/04/06 09:21:14;;;;;;;1.83;1.47;;;15.70;99.90;;;;;;5074838;28;20448;-62
2022/04/06 09:23:45;;;;;;;1.70;1.60;;;15.30;99.90;;;;;;5074764;28;20452;-61
2022/04/06 09:26:13;;;;;;;2.30;1.40;;;15.50;99.90;;;;;;5074334;28;20492;-61
2022/04/06 09:28:41;;;;;;;1.40;1.30;;;15.30;99.90;;;;;;5074495;28;20559;-61
2022/04/06 09:31:09;;;;;;;1.70;1.40;;;16.30;99.90;;;;;;5074105;28;20450;-61
2022/04/06 09:33:39;;;;;;;1.30;1.20;;;16.60;99.00;;;;;;5074524;28;20463;-62
2022/04/06 09:36:20;;;;;;;1.60;1.40;;;16.70;98.90;;;;;;5074394;28;20432;-61
2022/04/06 09:38:49;;;;;;;2.20;1.50;;;16.70;98.10;;;;;;5073982;28;20464;-62
2022/04/06 09:41:16;;;;;;;1.80;1.70;;;16.70;98.00;;;;;;5073920;28;20547;-62
2022/04/06 09:43:45;;;;;;;1.20;1.10;;;16.80;97.80;;;;;;5074376;28;20495;-62
2022/04/06 09:49:08;;;;;;;1.40;1.20;;;17.60;97.10;;;;;;5074043;28;20809;-62
2022/04/06 09:51:38;;;;;;;1.50;1.40;;;17.90;97.50;;;;;;5073419;28;20452;-62
2022/04/06 09:54:07;;;;;;;1.40;1.30;;;17.40;95.60;;;;;;5074016;28;20531;-62
2022/04/06 09:56:35;;;;;;;1.30;1.10;;;17.10;96.40;;;;;;5074182;28;20445;-62
2022/04/06 09:59:03;;;;;;;1.97;1.20;;;16.90;96.10;;;;;;5073977;28;20495;-61
2022/04/06 10:01:33;;;;;;;1.17;1.03;;;16.00;96.20;;;;;;5074036;28;20456;-62
2022/04/06 10:04:04;;;;;;;2.83;1.67;;;16.00;96.60;;;;;;5073896;28;20445;-62
2022/04/06 10:06:33;;;;;;;1.10;1.00;;;16.10;96.90;;;;;;5073831;28;20526;-61
2022/04/06 10:09:03;;;;;;;1.20;1.10;;;16.10;97.60;;;;;;5073746;28;20531;-61
2022/04/06 10:11:30;;;;;;;1.20;1.10;;;16.10;97.40;;;;;;5073572;28;20531;-62
2022/04/06 10:13:58;;;;;;;1.87;1.20;;;16.10;97.10;;;;;;5073820;28;20452;-63
2022/04/06 10:16:25;;;;;;;1.67;1.30;;;16.00;96.90;;;;;;5073574;28;20455;-63
2022/04/06 10:18:54;;;;;;;1.20;1.10;;;16.30;97.20;;;;;;5073377;28;20547;-63
2022/04/06 10:21:27;;;;;;;1.00;0.90;;;16.00;96.90;;;;;;5073682;28;20448;-62
2022/04/06 10:24:11;;;;;;;1.30;1.20;;;15.70;98.20;;;;;;5073332;28;20440;-62
2022/04/06 10:26:52;;;;;;;1.40;1.30;;;15.40;97.60;;;;;;5072948;28;20498;-62
2022/04/06 10:29:23;;;;;;;2.27;1.50;;;15.60;97.00;;;;;;5073131;28;20783;-61
2022/04/06 10:31:50;;;;;;;1.20;1.10;;;15.40;97.10;;;;;;5073351;28;20454;-61
2022/04/06 10:34:26;;;;;;;1.87;1.20;;;15.70;96.70;;;;;;5073275;28;20484;-61
2022/04/06 10:37:16;;;;;;;1.50;1.33;;;16.10;96.40;;;;;;5073208;28;20428;-61
2022/04/06 10:40:03;;;;;;;1.97;1.00;;;16.90;96.40;;;;;;5069038;28;20460;-61
2022/04/06 10:42:32;;;;;;;3.53;1.17;;;16.40;95.20;;;;;;5073224;28;20544;-62
2022/04/06 10:45:00;;;;;;;1.57;1.10;;;15.80;95.90;;;;;;5073159;28;20517;-61
2022/04/06 10:47:29;;;;;;;1.10;1.00;;;15.90;95.30;;;;;;5072656;28;20464;-62
2022/04/06 10:50:22;;;;;;;2.90;1.10;;;16.80;95.10;;;;;;5073251;28;20484;-62
2022/04/06 10:52:50;;;;;;;1.30;1.20;;;17.20;94.30;;;;;;5073116;28;20491;-62
2022/04/06 10:55:27;;;;;;;1.07;0.97;;;18.20;93.60;;;;;;5072565;28;20944;-62
2022/04/06 10:58:00;;;;;;;1.43;1.20;;;18.50;93.20;;;;;;5073187;28;20514;-61
2022/04/06 11:00:27;;;;;;;1.13;1.03;;;18.30;91.80;;;;;;5073141;28;20451;-62
2022/04/06 11:02:55;;;;;;;1.20;1.03;;;;;;;;;;5072824;28;20816;-62
2022/04/06 11:05:45;;;;;;;1.10;1.00;;;18.80;92.10;;;;;;5068063;28;20460;-61
2022/04/06 11:11:45;;;;;;;1.20;1.10;;;18.30;91.80;;;;;;5052755;28;20409;-62
2022/04/06 11:14:14;;;;;;;1.33;1.13;;;17.10;92.80;;;;;;5052894;28;20433;-62
2022/04/06 11:16:45;;;;;;;1.77;1.20;;;16.10;94.10;;;;;;5052668;28;20537;-63
2022/04/06 11:19:13;;;;;;;1.30;1.13;;;16.30;94.20;;;;;;5052472;28;20851;-62
2022/04/06 11:21:51;;;;;;;1.20;1.10;;;17.80;94.10;;;;;;5052324;28;21009;-62
2022/04/06 11:24:24;;;;;;;1.30;1.10;;;18.80;93.30;;;;;;5052573;28;20453;-63
2022/04/06 11:26:53;;;;;;;3.10;1.30;;;18.20;91.80;;;;;;5052191;28;20991;-62
2022/04/06 11:29:25;;;;;;;1.33;1.10;;;18.70;91.30;;;;;;5052466;28;20461;-62
2022/04/06 11:32:01;;;;;;;1.40;1.20;;;19.10;91.00;;;;;;5052509;28;20433;-62
2022/04/06 11:34:37;;;;;;;1.33;1.23;;;19.30;90.70;;;;;;5052190;28;20461;-63
2022/04/06 11:37:05;;;;;;;1.20;1.07;;;19.80;90.30;;;;;;5051889;28;20907;-61
2022/04/06 11:39:32;;;;;;;1.60;1.13;;;20.20;90.90;;;;;;5052522;28;20441;-62
2022/04/06 11:42:03;;;;;;;1.43;1.20;;;20.10;89.90;;;;;;5052563;28;20912;-62
2022/04/06 11:44:31;;;;;;;1.57;1.13;;;19.70;88.90;;;;;;5052415;28;20525;-63
2022/04/06 11:46:59;;;;;;;1.20;1.10;;;18.90;89.60;;;;;;5052127;28;20485;-62
2022/04/06 11:49:29;;;;;;;3.20;1.20;;;19.30;88.80;;;;;;5052579;28;20452;-62
2022/04/06 11:51:57;;;;;;;1.20;1.00;;;19.10;87.80;;;;;;5052653;28;20430;-62
2022/04/06 11:54:26;;;;;;;1.60;1.50;;;19.00;88.40;;;;;;5052019;28;20457;-62
2022/04/06 11:56:54;;;;;;;1.10;1.00;;;20.10;90.00;;;;;;5052494;28;20531;-62
2022/04/06 11:59:26;;;;;;;1.27;1.17;;;19.70;88.20;;;;;;5052582;28;20449;-60
2022/04/06 12:01:54;;;;;;;1.20;1.10;;;20.00;85.30;;;;;;5052643;28;20433;-62
2022/04/06 12:04:23;;;;;;;1.20;1.10;;;19.30;85.00;;;;;;5052380;28;20448;-61
2022/04/06 12:06:51;;;;;;;1.90;1.67;;;20.20;90.00;;;;;;5051479;28;20484;-62
2022/04/06 12:09:19;;;;;;;1.30;1.20;;;21.20;83.80;;;;;;5052051;28;20488;-62
2022/04/06 12:11:50;;;;;;;2.57;1.07;;;;;;;;;;5052024;28;20475;-63
2022/04/06 12:14:18;;;;;;;1.30;1.00;;;21.50;82.30;;;;;;5052092;28;20433;-64
2022/04/06 12:16:50;;;;;;;1.63;1.10;;;22.00;81.10;;;;;;5055901;28;20911;-63
2022/04/06 12:19:18;;;;;;;1.43;1.30;;;21.40;78.70;;;;;;5055786;28;20434;-62
2022/04/06 12:21:47;;;;;;;1.30;1.10;;;20.70;78.50;;;;;;5055843;28;20544;-63
2022/04/06 12:24:17;;;;;;;1.40;1.10;;;21.20;83.20;;;;;;5055621;28;20507;-62
2022/04/06 12:26:50;;;;;;;1.20;1.10;;;20.60;78.10;;;;;;5055406;28;20489;-62
2022/04/06 12:29:18;;;;;;;2.07;1.13;;;20.60;77.40;;;;;;5055756;28;20499;-62
2022/04/06 12:31:47;;;;;;;1.87;1.27;;;20.30;78.10;;;;;;5055447;28;20449;-62
2022/04/06 12:34:28;;;;;;;1.20;1.10;;;19.90;77.20;;;;;;5055810;28;20479;-62
2022/04/06 12:36:55;;;;;;;1.30;1.17;;;19.50;78.70;;;;;;5055694;28;20445;-62
2022/04/06 12:39:23;;;;;;;2.13;1.10;;;19.80;79.90;;;;;;5055598;28;20445;-63
2022/04/06 12:41:56;;;;;;;1.17;1.07;;;20.80;80.90;;;;;;5055116;28;20821;-63
2022/04/06 12:44:23;;;;;;;1.50;1.10;;;20.90;76.40;;;;;;5055555;28;20433;-63
2022/04/06 12:46:53;;;;;;;2.33;1.20;;;20.10;75.20;;;;;;5054896;28;21063;-63
2022/04/06 12:49:29;;;;;;;1.10;1.00;;;20.20;74.60;;;;;;5055295;28;20476;-62
2022/04/06 12:52:12;;;;;;;3.23;1.10;;;19.80;75.70;;;;;;5055337;28;20433;-63
2022/04/06 12:54:40;;;;;;;1.20;1.00;;;20.30;76.00;;;;;;5054967;28;20521;-62
2022/04/06 12:57:11;;;;;;;1.80;1.20;;;19.90;74.50;;;;;;5054907;28;20971;-63
2022/04/06 12:59:46;;;;;;;1.43;1.10;;;19.80;75.60;;;;;;5055213;28;20504;-63
2022/04/06 13:02:29;;;;;;;1.10;1.00;;;19.20;75.50;;;;;;5054826;28;20921;-62
2022/04/06 13:04:59;;;;;;;3.00;1.33;;;19.40;76.90;;;;;;5055141;28;20429;-62